Map

Track Data

SID SEASON NUMBER BASIN SUBBASIN NAME ISO_TIME NATURE LAT LON WMO_WIND WMO_PRES WMO_AGENCY TRACK_TYPE DIST2LAND LANDFALL IFLAG USA_AGENCY USA_ATCF_ID USA_LAT USA_LON USA_RECORD USA_STATUS USA_WIND USA_PRES USA_SSHS USA_R34_NE USA_R34_SE USA_R34_SW USA_R34_NW USA_R50_NE USA_R50_SE USA_R50_SW USA_R50_NW USA_R64_NE USA_R64_SE USA_R64_SW USA_R64_NW USA_POCI USA_ROCI USA_RMW USA_EYE TOKYO_LAT TOKYO_LON TOKYO_GRADE TOKYO_WIND TOKYO_PRES TOKYO_R50_DIR TOKYO_R50_LONG TOKYO_R50_SHORT TOKYO_R30_DIR TOKYO_R30_LONG TOKYO_R30_SHORT TOKYO_LAND CMA_LAT CMA_LON CMA_CAT CMA_WIND CMA_PRES HKO_LAT HKO_LON HKO_CAT HKO_WIND HKO_PRES NEWDELHI_LAT NEWDELHI_LON NEWDELHI_GRADE NEWDELHI_WIND NEWDELHI_PRES NEWDELHI_CI NEWDELHI_DP NEWDELHI_POCI REUNION_LAT REUNION_LON REUNION_TYPE REUNION_WIND REUNION_PRES REUNION_TNUM REUNION_CI REUNION_RMW REUNION_R34_NE REUNION_R34_SE REUNION_R34_SW REUNION_R34_NW REUNION_R50_NE REUNION_R50_SE REUNION_R50_SW REUNION_R50_NW REUNION_R64_NE REUNION_R64_SE REUNION_R64_SW REUNION_R64_NW BOM_LAT BOM_LON BOM_TYPE BOM_WIND BOM_PRES BOM_TNUM BOM_CI BOM_RMW BOM_R34_NE BOM_R34_SE BOM_R34_SW BOM_R34_NW BOM_R50_NE BOM_R50_SE BOM_R50_SW BOM_R50_NW BOM_R64_NE BOM_R64_SE BOM_R64_SW BOM_R64_NW BOM_ROCI BOM_POCI BOM_EYE BOM_POS_METHOD BOM_PRES_METHOD NADI_LAT NADI_LON NADI_CAT NADI_WIND NADI_PRES WELLINGTON_LAT WELLINGTON_LON WELLINGTON_WIND WELLINGTON_PRES DS824_LAT DS824_LON DS824_STAGE DS824_WIND DS824_PRES TD9636_LAT TD9636_LON TD9636_STAGE TD9636_WIND TD9636_PRES TD9635_LAT TD9635_LON TD9635_WIND TD9635_PRES TD9635_ROCI NEUMANN_LAT NEUMANN_LON NEUMANN_CLASS NEUMANN_WIND NEUMANN_PRES MLC_LAT MLC_LON MLC_CLASS MLC_WIND MLC_PRES USA_GUST BOM_GUST BOM_GUST_PER REUNION_GUST REUNION_GUST_PER USA_SEAHGT USA_SEARAD_NE USA_SEARAD_SE USA_SEARAD_SW USA_SEARAD_NW STORM_SPEED STORM_DIR
1930236N12145 1930 42 WP MM NOT_NAMED 1930-08-23 22:00:00 NR 12.3000 144.800 main 1625 1625 __________O___ -1 12.3000 144.800 7 25 0
1930236N12145 1930 42 WP MM NOT_NAMED 1930-08-24 00:00:00 NR 13.1245 144.778 main 1714 1725 __________P___ -1 13.1245 144.778 7 25 358
1930236N12145 1930 42 WP MM NOT_NAMED 1930-08-24 03:00:00 NR 14.3463 144.748 main 1849 1860 __________P___ -1 14.3463 144.748 7 24 359
1930236N12145 1930 42 WP MM NOT_NAMED 1930-08-24 06:00:00 NR 15.5280 144.722 main 1982 1993 __________P___ -1 15.5280 144.722 7 23 359
1930236N12145 1930 42 WP MM NOT_NAMED 1930-08-24 09:00:00 NR 16.6457 144.704 main 2077 2046 __________P___ -1 16.6457 144.704 7 22 0
1930236N12145 1930 42 WP MM NOT_NAMED 1930-08-24 10:00:00 NR 17.0000 144.700 main 2036 1965 __________O___ -1 17.0000 144.700 7 21 0
1930236N12145 1930 42 WP MM NOT_NAMED 1930-08-24 12:00:00 NR 17.6771 144.695 main 1965 1874 __________P___ -1 17.6771 144.695 7 19 359
1930236N12145 1930 42 WP MM NOT_NAMED 1930-08-24 15:00:00 NR 18.6118 144.683 main 1874 1790 __________P___ -1 18.6118 144.683 7 18 358
1930236N12145 1930 42 WP MM NOT_NAMED 1930-08-24 18:00:00 NR 19.4469 144.642 main 1790 1702 __________P___ -1 19.4469 144.642 7 16 355
1930236N12145 1930 42 WP MM NOT_NAMED 1930-08-24 21:00:00 NR 20.1793 144.548 main 1702 1680 __________P___ -1 20.1793 144.548 7 15 352
1930236N12145 1930 42 WP MM NOT_NAMED 1930-08-24 22:00:00 NR 20.4000 144.500 main 1680 1634 __________O___ -1 20.4000 144.500 7 13 347
1930236N12145 1930 42 WP MM NOT_NAMED 1930-08-25 00:00:00 NR 20.8286 144.392 main 1634 1564 __________P___ -1 20.8286 144.392 7 12 343
1930236N12145 1930 42 WP MM NOT_NAMED 1930-08-25 03:00:00 NR 21.3837 144.173 main 1564 1502 __________P___ -1 21.3837 144.173 7 11 335
1930236N12145 1930 42 WP MM NOT_NAMED 1930-08-25 06:00:00 NR 21.8559 143.886 main 1502 1447 __________P___ -1 21.8559 143.886 7 11 326
1930236N12145 1930 42 WP MM NOT_NAMED 1930-08-25 09:00:00 NR 22.2704 143.533 main 1447 1433 __________P___ -1 22.2704 143.533 7 11 320
1930236N12145 1930 42 WP MM NOT_NAMED 1930-08-25 10:00:00 NR 22.4000 143.400 main 1433 1391 __________O___ -1 22.4000 143.400 7 11 315
1930236N12145 1930 42 WP MM NOT_NAMED 1930-08-25 12:00:00 NR 22.6601 143.112 main 1391 1337 __________P___ -1 22.6601 143.112 7 11 311
1930236N12145 1930 42 WP MM NOT_NAMED 1930-08-25 15:00:00 NR 23.0120 142.624 main 1337 1284 __________P___ -1 23.0120 142.624 7 12 306
1930236N12145 1930 42 WP MM NOT_NAMED 1930-08-25 18:00:00 NR 23.3428 142.099 main 1284 1221 __________P___ -1 23.3428 142.099 7 12 305
1930236N12145 1930 42 WP MM NOT_NAMED 1930-08-25 21:00:00 NR 23.6808 141.571 main 1221 1202 __________P___ -1 23.6808 141.571 7 12 306
1930236N12145 1930 42 WP MM NOT_NAMED 1930-08-25 22:00:00 NR 23.8000 141.400 main 1202 1158 __________O___ -1 23.8000 141.400 7 12 308
1930236N12145 1930 42 WP MM NOT_NAMED 1930-08-26 00:00:00 NR 24.0558 141.055 main 1158 1093 __________P___ -1 24.0558 141.055 7 12 310
1930236N12145 1930 42 WP MM NOT_NAMED 1930-08-26 03:00:00 NR 24.4584 140.549 main 1093 1036 __________P___ -1 24.4584 140.549 7 12 313
1930236N12145 1930 42 WP MM NOT_NAMED 1930-08-26 06:00:00 NR 24.8859 140.087 main 1036 979 __________P___ -1 24.8859 140.087 7 12 319
1930236N12145 1930 42 WP MM NOT_NAMED 1930-08-26 09:00:00 NR 25.3414 139.704 main 979 955 __________P___ -1 25.3414 139.704 7 11 324
1930236N12145 1930 42 WP MM NOT_NAMED 1930-08-26 10:00:00 NR 25.5000 139.600 main 955 906 __________O___ -1 25.5000 139.600 7 12 334
1930236N12145 1930 42 WP MM NOT_NAMED 1930-08-26 12:00:00 NR 25.8580 139.421 main 906 846 __________P___ -1 25.8580 139.421 7 12 340
1930236N12145 1930 42 WP MM NOT_NAMED 1930-08-26 15:00:00 NR 26.4215 139.234 main 846 781 __________P___ -1 26.4215 139.234 7 11 347
1930236N12145 1930 42 WP MM NOT_NAMED 1930-08-26 18:00:00 NR 26.9723 139.132 main 781 730 __________P___ -1 26.9723 139.132 7 11 354
1930236N12145 1930 42 WP MM NOT_NAMED 1930-08-26 21:00:00 NR 27.4601 139.099 main 730 719 __________P___ -1 27.4601 139.099 7 9 356
1930236N12145 1930 42 WP MM NOT_NAMED 1930-08-26 22:00:00 NR 27.6000 139.100 main 719 699 __________O___ -1 27.6000 139.100 7 7 359
1930236N12145 1930 42 WP MM NOT_NAMED 1930-08-27 00:00:00 NR 27.8184 139.093 main 699 669 __________P___ -1 27.8184 139.093 7 6 4
1930236N12145 1930 42 WP MM NOT_NAMED 1930-08-27 03:00:00 NR 28.0704 139.134 main 669 654 __________P___ -1 28.0704 139.134 7 5 15
1930236N12145 1930 42 WP MM NOT_NAMED 1930-08-27 06:00:00 NR 28.2650 139.225 main 654 649 __________P___ -1 28.2650 139.225 7 4 27
1930236N12145 1930 42 WP MM NOT_NAMED 1930-08-27 09:00:00 NR 28.4397 139.352 main 654 645 __________P___ -1 28.4397 139.352 7 4 33
1930236N12145 1930 42 WP MM NOT_NAMED 1930-08-27 10:00:00 NR 28.5000 139.400 main 645 635 __________O___ -1 28.5000 139.400 7 5 35
1930236N12145 1930 42 WP MM NOT_NAMED 1930-08-27 12:00:00 NR 28.6298 139.503 main 640 627 __________P___ -1 28.6298 139.503 7 5 35
1930236N12145 1930 42 WP MM NOT_NAMED 1930-08-27 15:00:00 NR 28.8445 139.671 main 632 611 __________P___ -1 28.8445 139.671 7 5 34
1930236N12145 1930 42 WP MM NOT_NAMED 1930-08-27 18:00:00 NR 29.0766 139.850 main 617 601 __________P___ -1 29.0766 139.850 7 6 34
1930236N12145 1930 42 WP MM NOT_NAMED 1930-08-27 21:00:00 NR 29.3185 140.037 main 601 592 __________P___ -1 29.3185 140.037 7 6 34
1930236N12145 1930 42 WP MM NOT_NAMED 1930-08-27 22:00:00 NR 29.4000 140.100 main 592 __________O___ -1 29.4000 140.100 7 6 33

Digital Typhoon Data and Search

About IBTrACS Database

This database is a web-friendly format of International Best Track Archive for Climate Stewardship (IBTrACS), a global best track data archive curated by NOAA dating back to 1842.

Updated: 2021-10-21